IGO273W VECC-VELP
Flight info
| Callsign | IGO273W |
|---|---|
| Flight time | 0h 49m |
| Altitude | 31000 |
| Route | NOKAT2C NOKAT B593 AAT W54 MEPAR W84 LLP |
| Aircraft | A20N/M-SDE2E3FGHIRWXY/LB1 |
Departure
| Time | 2026-04-27 06:53 |
|---|---|
| Airport | Netaji Subhash Chandra Bose International Airport (VECC) |
Arrival
| Time | 2026-04-27 07:42 |
|---|---|
| Airport | Lengpui Airport (VELP) |
| Time | Latitude | Longitude | Altitude | Speed | Heading |
|---|---|---|---|---|---|
| 2026-04-27 06:35 | 22.64510 | 88.44096 | 25 ft | 0 kts | 276° |
| 2026-04-27 06:39 | 22.64509 | 88.44109 | 25 ft | 2 kts | 276° |
| 2026-04-27 06:40 | 22.64507 | 88.44125 | 25 ft | 2 kts | 276° |
| 2026-04-27 06:40 | 22.64505 | 88.44142 | 25 ft | 2 kts | 276° |
| 2026-04-27 06:40 | 22.64499 | 88.44157 | 25 ft | 2 kts | 316° |
| 2026-04-27 06:40 | 22.64486 | 88.44165 | 25 ft | 2 kts | 348° |
| 2026-04-27 06:41 | 22.64478 | 88.44167 | 25 ft | 1 kts | 5° |
| 2026-04-27 06:41 | 22.64471 | 88.44165 | 25 ft | 0 kts | 6° |
| 2026-04-27 06:43 | 22.64472 | 88.44165 | 25 ft | 0 kts | 6° |
| 2026-04-27 06:43 | 22.64474 | 88.44166 | 25 ft | 0 kts | 5° |
| 2026-04-27 06:43 | 22.64479 | 88.44166 | 25 ft | 0 kts | 6° |
| 2026-04-27 06:44 | 22.64487 | 88.44167 | 25 ft | 1 kts | 6° |
| 2026-04-27 06:44 | 22.64500 | 88.44169 | 25 ft | 2 kts | 6° |
| 2026-04-27 06:44 | 22.64533 | 88.44173 | 25 ft | 7 kts | 5° |
| 2026-04-27 06:44 | 22.64597 | 88.44179 | 25 ft | 11 kts | 6° |
| 2026-04-27 06:45 | 22.64688 | 88.44190 | 26 ft | 14 kts | 6° |
| 2026-04-27 06:45 | 22.64794 | 88.44203 | 28 ft | 15 kts | 5° |
| 2026-04-27 06:45 | 22.64911 | 88.44218 | 29 ft | 17 kts | 9° |
| 2026-04-27 06:45 | 22.65035 | 88.44235 | 30 ft | 17 kts | 26° |
| 2026-04-27 06:46 | 22.65095 | 88.44351 | 28 ft | 18 kts | 68° |
| 2026-04-27 06:46 | 22.65186 | 88.44427 | 28 ft | 17 kts | 5° |
| 2026-04-27 06:46 | 22.65310 | 88.44441 | 28 ft | 17 kts | 6° |
| 2026-04-27 06:46 | 22.65428 | 88.44456 | 27 ft | 16 kts | 5° |
| 2026-04-27 06:47 | 22.65547 | 88.44469 | 26 ft | 17 kts | 6° |
| 2026-04-27 06:47 | 22.65664 | 88.44482 | 26 ft | 16 kts | 5° |
| 2026-04-27 06:47 | 22.65777 | 88.44494 | 25 ft | 16 kts | 5° |
| 2026-04-27 06:47 | 22.65885 | 88.44533 | 25 ft | 16 kts | 33° |
| 2026-04-27 06:48 | 22.65985 | 88.44604 | 23 ft | 17 kts | 30° |
| 2026-04-27 06:48 | 22.66106 | 88.44645 | 22 ft | 18 kts | 6° |
| 2026-04-27 06:48 | 22.66234 | 88.44659 | 22 ft | 18 kts | 6° |
| 2026-04-27 06:48 | 22.66362 | 88.44675 | 24 ft | 17 kts | 6° |
| 2026-04-27 06:49 | 22.66467 | 88.44688 | 25 ft | 12 kts | 6° |
| 2026-04-27 06:49 | 22.66544 | 88.44728 | 25 ft | 12 kts | 44° |
| 2026-04-27 06:49 | 22.66589 | 88.44788 | 25 ft | 2 kts | 52° |
| 2026-04-27 06:51 | 22.66590 | 88.44790 | 25 ft | 1 kts | 52° |
| 2026-04-27 06:51 | 22.66600 | 88.44804 | 25 ft | 3 kts | 53° |
| 2026-04-27 06:51 | 22.66619 | 88.44832 | 25 ft | 5 kts | 53° |
| 2026-04-27 06:51 | 22.66643 | 88.44872 | 25 ft | 6 kts | 76° |
| 2026-04-27 06:52 | 22.66620 | 88.44913 | 25 ft | 7 kts | 173° |
| 2026-04-27 06:52 | 22.66537 | 88.44903 | 24 ft | 29 kts | 186° |
| 2026-04-27 06:52 | 22.66104 | 88.44852 | 22 ft | 93 kts | 186° |
| 2026-04-27 06:52 | 22.65271 | 88.44753 | 25 ft | 145 kts | 186° |
| 2026-04-27 06:53 | 22.64215 | 88.44629 | 397 ft | 154 kts | 185° |
| 2026-04-27 06:53 | 22.63139 | 88.44490 | 909 ft | 157 kts | 186° |
| 2026-04-27 06:53 | 22.62051 | 88.44477 | 1437 ft | 160 kts | 163° |
| 2026-04-27 06:53 | 22.61238 | 88.45314 | 1892 ft | 177 kts | 116° |
| 2026-04-27 06:54 | 22.61194 | 88.46708 | 2230 ft | 203 kts | 76° |
| 2026-04-27 06:54 | 22.61772 | 88.48176 | 2586 ft | 221 kts | 70° |
| 2026-04-27 06:54 | 22.62390 | 88.49763 | 2913 ft | 240 kts | 70° |
| 2026-04-27 06:54 | 22.63057 | 88.51524 | 3235 ft | 261 kts | 70° |
| 2026-04-27 06:55 | 22.63759 | 88.53384 | 3642 ft | 279 kts | 69° |
| 2026-04-27 06:55 | 22.64507 | 88.55366 | 4210 ft | 290 kts | 69° |
| 2026-04-27 06:55 | 22.65270 | 88.57387 | 4939 ft | 293 kts | 68° |
| 2026-04-27 06:55 | 22.66048 | 88.59452 | 5649 ft | 297 kts | 67° |
| 2026-04-27 06:56 | 22.66828 | 88.61522 | 6336 ft | 301 kts | 66° |
| 2026-04-27 06:56 | 22.67617 | 88.63615 | 7050 ft | 303 kts | 66° |
| 2026-04-27 06:56 | 22.68413 | 88.65729 | 7750 ft | 306 kts | 65° |
| 2026-04-27 06:56 | 22.69219 | 88.67870 | 8450 ft | 308 kts | 65° |
| 2026-04-27 06:57 | 22.70023 | 88.70005 | 9160 ft | 310 kts | 64° |
| 2026-04-27 06:57 | 22.70841 | 88.72179 | 9867 ft | 312 kts | 64° |
| 2026-04-27 06:57 | 22.71668 | 88.74363 | 10303 ft | 324 kts | 64° |
| 2026-04-27 06:57 | 22.72553 | 88.76699 | 10589 ft | 342 kts | 64° |
| 2026-04-27 06:58 | 22.73467 | 88.79125 | 10974 ft | 356 kts | 64° |
| 2026-04-27 06:58 | 22.75343 | 88.84139 | 12263 ft | 364 kts | 64° |
| 2026-04-27 06:58 | 22.76289 | 88.86669 | 12902 ft | 369 kts | 64° |
| 2026-04-27 06:59 | 22.77256 | 88.89253 | 13555 ft | 372 kts | 64° |
| 2026-04-27 06:59 | 22.78238 | 88.91876 | 14185 ft | 375 kts | 64° |
| 2026-04-27 06:59 | 22.79182 | 88.94505 | 14784 ft | 380 kts | 67° |
| 2026-04-27 06:59 | 22.80016 | 88.97234 | 15378 ft | 384 kts | 69° |
| 2026-04-27 07:00 | 22.80822 | 88.99978 | 15920 ft | 388 kts | 69° |
| 2026-04-27 07:00 | 22.81644 | 89.02801 | 16496 ft | 391 kts | 69° |
| 2026-04-27 07:00 | 22.82458 | 89.05597 | 17000 ft | 395 kts | 69° |
| 2026-04-27 07:00 | 22.83297 | 89.08472 | 17526 ft | 399 kts | 69° |
| 2026-04-27 07:01 | 22.84139 | 89.11355 | 18060 ft | 402 kts | 69° |
| 2026-04-27 07:01 | 22.84984 | 89.14254 | 18595 ft | 405 kts | 69° |
| 2026-04-27 07:01 | 22.85831 | 89.17153 | 19103 ft | 408 kts | 69° |
| 2026-04-27 07:01 | 22.86694 | 89.20110 | 19611 ft | 411 kts | 69° |
| 2026-04-27 07:02 | 22.87549 | 89.23043 | 20110 ft | 414 kts | 69° |
| 2026-04-27 07:02 | 22.88425 | 89.26051 | 20625 ft | 417 kts | 69° |
| 2026-04-27 07:02 | 22.89290 | 89.29024 | 21110 ft | 420 kts | 69° |
| 2026-04-27 07:02 | 22.90174 | 89.32056 | 21592 ft | 423 kts | 69° |
| 2026-04-27 07:03 | 22.91052 | 89.35068 | 22080 ft | 425 kts | 69° |
| 2026-04-27 07:03 | 22.91945 | 89.38144 | 22555 ft | 428 kts | 69° |
| 2026-04-27 07:03 | 22.92843 | 89.41235 | 23037 ft | 431 kts | 69° |
| 2026-04-27 07:03 | 22.93736 | 89.44317 | 23497 ft | 434 kts | 69° |
| 2026-04-27 07:04 | 22.94651 | 89.47467 | 23954 ft | 437 kts | 69° |
| 2026-04-27 07:04 | 22.95565 | 89.50623 | 24393 ft | 440 kts | 70° |
| 2026-04-27 07:04 | 22.96473 | 89.53762 | 24804 ft | 443 kts | 69° |
| 2026-04-27 07:04 | 22.97402 | 89.56974 | 25210 ft | 447 kts | 69° |
| 2026-04-27 07:05 | 22.98337 | 89.60209 | 25620 ft | 450 kts | 69° |
| 2026-04-27 07:05 | 22.99273 | 89.63452 | 26033 ft | 453 kts | 69° |
| 2026-04-27 07:05 | 23.00221 | 89.66736 | 26419 ft | 456 kts | 70° |
| 2026-04-27 07:05 | 23.01164 | 89.70009 | 26774 ft | 460 kts | 70° |
| 2026-04-27 07:06 | 23.02121 | 89.73328 | 27148 ft | 463 kts | 70° |
| 2026-04-27 07:06 | 23.03080 | 89.76666 | 27590 ft | 464 kts | 70° |
| 2026-04-27 07:06 | 23.04037 | 89.80000 | 28130 ft | 462 kts | 70° |
| 2026-04-27 07:06 | 23.04992 | 89.83330 | 28649 ft | 461 kts | 70° |
| 2026-04-27 07:07 | 23.05945 | 89.86649 | 29145 ft | 460 kts | 70° |
| 2026-04-27 07:07 | 23.06897 | 89.89970 | 29550 ft | 461 kts | 70° |
| 2026-04-27 07:07 | 23.07850 | 89.93295 | 29901 ft | 463 kts | 70° |
| 2026-04-27 07:07 | 23.08802 | 89.96622 | 30251 ft | 465 kts | 69° |
| 2026-04-27 07:08 | 23.09757 | 89.99983 | 30586 ft | 467 kts | 70° |
| 2026-04-27 07:08 | 23.10705 | 90.03358 | 30688 ft | 469 kts | 70° |
| 2026-04-27 07:08 | 23.11654 | 90.06752 | 30694 ft | 470 kts | 70° |
| 2026-04-27 07:09 | 23.13542 | 90.13522 | 30700 ft | 468 kts | 70° |
| 2026-04-27 07:09 | 23.15420 | 90.20257 | 30705 ft | 469 kts | 70° |
| 2026-04-27 07:10 | 23.17308 | 90.27027 | 30708 ft | 469 kts | 70° |
| 2026-04-27 07:10 | 23.19191 | 90.33808 | 30708 ft | 470 kts | 70° |
| 2026-04-27 07:11 | 23.21073 | 90.40588 | 30721 ft | 470 kts | 70° |
| 2026-04-27 07:11 | 23.22971 | 90.47372 | 30725 ft | 470 kts | 69° |
| 2026-04-27 07:12 | 23.24921 | 90.54135 | 30729 ft | 469 kts | 69° |
| 2026-04-27 07:12 | 23.26871 | 90.60913 | 30731 ft | 469 kts | 69° |
| 2026-04-27 07:13 | 23.28797 | 90.67637 | 30728 ft | 469 kts | 70° |
| 2026-04-27 07:13 | 23.30733 | 90.74422 | 30730 ft | 470 kts | 70° |
| 2026-04-27 07:14 | 23.32667 | 90.81209 | 30729 ft | 470 kts | 70° |
| 2026-04-27 07:14 | 23.34589 | 90.87968 | 30725 ft | 470 kts | 70° |
| 2026-04-27 07:15 | 23.36506 | 90.94751 | 30721 ft | 469 kts | 69° |
| 2026-04-27 07:15 | 23.38424 | 91.01550 | 30724 ft | 469 kts | 70° |
| 2026-04-27 07:16 | 23.40338 | 91.08321 | 30720 ft | 468 kts | 68° |
| 2026-04-27 07:16 | 23.41652 | 91.11544 | 30715 ft | 462 kts | 55° |
| 2026-04-27 07:16 | 23.43506 | 91.14365 | 30715 ft | 455 kts | 43° |
| 2026-04-27 07:16 | 23.45773 | 91.16671 | 30720 ft | 447 kts | 31° |
| 2026-04-27 07:17 | 23.48403 | 91.18459 | 30722 ft | 439 kts | 20° |
| 2026-04-27 07:17 | 23.51236 | 91.19650 | 30719 ft | 431 kts | 9° |
| 2026-04-27 07:17 | 23.54122 | 91.20242 | 30724 ft | 424 kts | 1° |
| 2026-04-27 07:18 | 23.60024 | 91.20838 | 30715 ft | 423 kts | 359° |
| 2026-04-27 07:18 | 23.65885 | 91.21413 | 30721 ft | 423 kts | 359° |
| 2026-04-27 07:18 | 23.68848 | 91.21713 | 30519 ft | 437 kts | 359° |
| 2026-04-27 07:19 | 23.71933 | 91.22030 | 30244 ft | 446 kts | 0° |
| 2026-04-27 07:19 | 23.75040 | 91.22357 | 29850 ft | 449 kts | 0° |
| 2026-04-27 07:19 | 23.78129 | 91.22685 | 29321 ft | 451 kts | 0° |
| 2026-04-27 07:19 | 23.81285 | 91.23021 | 28678 ft | 451 kts | 0° |
| 2026-04-27 07:20 | 23.84365 | 91.23595 | 27948 ft | 460 kts | 13° |
| 2026-04-27 07:20 | 23.87237 | 91.25249 | 27184 ft | 473 kts | 33° |
| 2026-04-27 07:20 | 23.89463 | 91.27914 | 26447 ft | 484 kts | 54° |
| 2026-04-27 07:20 | 23.90781 | 91.31277 | 25725 ft | 490 kts | 73° |
| 2026-04-27 07:21 | 23.91455 | 91.34942 | 24985 ft | 491 kts | 78° |
| 2026-04-27 07:21 | 23.91969 | 91.38611 | 24212 ft | 492 kts | 79° |
| 2026-04-27 07:21 | 23.92491 | 91.42298 | 23539 ft | 488 kts | 79° |
| 2026-04-27 07:21 | 23.93048 | 91.45925 | 23027 ft | 481 kts | 78° |
| 2026-04-27 07:22 | 23.93628 | 91.49458 | 22500 ft | 476 kts | 77° |
| 2026-04-27 07:22 | 23.94230 | 91.52981 | 21984 ft | 470 kts | 77° |
| 2026-04-27 07:22 | 23.94842 | 91.56491 | 21448 ft | 466 kts | 77° |
| 2026-04-27 07:22 | 23.95448 | 91.59946 | 20911 ft | 462 kts | 77° |
| 2026-04-27 07:23 | 23.96047 | 91.63341 | 20375 ft | 458 kts | 77° |
| 2026-04-27 07:23 | 23.96648 | 91.66754 | 19838 ft | 453 kts | 77° |
| 2026-04-27 07:23 | 23.97238 | 91.70121 | 19293 ft | 450 kts | 77° |
| 2026-04-27 07:23 | 23.97819 | 91.73428 | 18754 ft | 446 kts | 77° |
| 2026-04-27 07:24 | 23.98397 | 91.76726 | 18223 ft | 442 kts | 76° |
| 2026-04-27 07:24 | 23.98974 | 91.80033 | 17678 ft | 438 kts | 76° |
| 2026-04-27 07:24 | 23.99529 | 91.83248 | 17165 ft | 435 kts | 78° |
| 2026-04-27 07:24 | 23.99744 | 91.86565 | 16630 ft | 434 kts | 90° |
| 2026-04-27 07:25 | 23.99396 | 91.89793 | 16161 ft | 431 kts | 101° |
| 2026-04-27 07:25 | 23.98719 | 91.92977 | 15705 ft | 425 kts | 104° |
| 2026-04-27 07:25 | 23.98000 | 91.96053 | 15254 ft | 421 kts | 104° |
| 2026-04-27 07:25 | 23.97277 | 91.99141 | 14824 ft | 414 kts | 104° |
| 2026-04-27 07:26 | 23.96579 | 92.02171 | 14724 ft | 409 kts | 104° |
| 2026-04-27 07:26 | 23.95898 | 92.05160 | 14657 ft | 408 kts | 104° |
| 2026-04-27 07:26 | 23.95211 | 92.08211 | 14048 ft | 411 kts | 104° |
| 2026-04-27 07:26 | 23.94536 | 92.11217 | 13277 ft | 415 kts | 104° |
| 2026-04-27 07:27 | 23.93851 | 92.14281 | 12668 ft | 412 kts | 104° |
| 2026-04-27 07:27 | 23.93178 | 92.17281 | 12157 ft | 407 kts | 105° |
| 2026-04-27 07:27 | 23.92505 | 92.20282 | 11580 ft | 404 kts | 104° |
| 2026-04-27 07:27 | 23.91839 | 92.23246 | 10981 ft | 402 kts | 105° |
| 2026-04-27 07:28 | 23.91178 | 92.26196 | 10590 ft | 394 kts | 105° |
| 2026-04-27 07:28 | 23.90539 | 92.29047 | 10340 ft | 385 kts | 105° |
| 2026-04-27 07:28 | 23.89916 | 92.31825 | 10181 ft | 372 kts | 105° |
| 2026-04-27 07:28 | 23.89307 | 92.34536 | 10053 ft | 357 kts | 105° |
| 2026-04-27 07:29 | 23.88733 | 92.37102 | 9988 ft | 342 kts | 105° |
| 2026-04-27 07:29 | 23.88176 | 92.39575 | 9820 ft | 333 kts | 105° |
| 2026-04-27 07:29 | 23.87627 | 92.42001 | 9522 ft | 328 kts | 106° |
| 2026-04-27 07:29 | 23.87080 | 92.44419 | 9217 ft | 323 kts | 106° |
| 2026-04-27 07:30 | 23.86548 | 92.46777 | 8946 ft | 318 kts | 106° |
| 2026-04-27 07:30 | 23.86028 | 92.49078 | 8698 ft | 313 kts | 106° |
| 2026-04-27 07:30 | 23.85507 | 92.51386 | 8406 ft | 308 kts | 106° |
| 2026-04-27 07:30 | 23.85007 | 92.53593 | 8400 ft | 294 kts | 106° |
| 2026-04-27 07:31 | 23.84531 | 92.55708 | 8377 ft | 279 kts | 107° |
| 2026-04-27 07:31 | 23.84078 | 92.57709 | 8345 ft | 265 kts | 107° |
| 2026-04-27 07:31 | 23.83686 | 92.59633 | 8302 ft | 253 kts | 97° |
| 2026-04-27 07:31 | 23.83997 | 92.61474 | 8232 ft | 243 kts | 57° |
| 2026-04-27 07:32 | 23.85177 | 92.62593 | 8247 ft | 218 kts | 18° |
| 2026-04-27 07:32 | 23.86644 | 92.62756 | 7873 ft | 212 kts | 352° |
| 2026-04-27 07:32 | 23.88118 | 92.62620 | 7472 ft | 215 kts | 351° |
| 2026-04-27 07:32 | 23.89626 | 92.62501 | 7101 ft | 216 kts | 352° |
| 2026-04-27 07:33 | 23.91136 | 92.62426 | 6744 ft | 216 kts | 354° |
| 2026-04-27 07:33 | 23.92639 | 92.62385 | 6389 ft | 216 kts | 355° |
| 2026-04-27 07:33 | 23.94132 | 92.62365 | 6048 ft | 215 kts | 356° |
| 2026-04-27 07:33 | 23.95616 | 92.62357 | 5742 ft | 214 kts | 356° |
| 2026-04-27 07:34 | 23.97106 | 92.62353 | 5409 ft | 213 kts | 356° |
| 2026-04-27 07:34 | 23.98585 | 92.62350 | 5075 ft | 211 kts | 356° |
| 2026-04-27 07:34 | 24.00045 | 92.62350 | 4817 ft | 204 kts | 357° |
| 2026-04-27 07:34 | 24.01432 | 92.62351 | 4639 ft | 195 kts | 357° |
| 2026-04-27 07:35 | 24.02780 | 92.62351 | 4463 ft | 187 kts | 356° |
| 2026-04-27 07:35 | 24.04075 | 92.62351 | 4414 ft | 186 kts | 357° |
| 2026-04-27 07:35 | 24.05370 | 92.62350 | 4391 ft | 187 kts | 356° |
| 2026-04-27 07:35 | 24.06671 | 92.62338 | 4388 ft | 186 kts | 352° |
| 2026-04-27 07:36 | 24.07875 | 92.61925 | 4382 ft | 179 kts | 321° |
| 2026-04-27 07:36 | 24.08708 | 92.60960 | 4406 ft | 172 kts | 292° |
| 2026-04-27 07:36 | 24.09030 | 92.59727 | 4413 ft | 166 kts | 265° |
| 2026-04-27 07:36 | 24.08637 | 92.58606 | 4420 ft | 160 kts | 223° |
| 2026-04-27 07:37 | 24.07630 | 92.58137 | 4438 ft | 163 kts | 186° |
| 2026-04-27 07:37 | 24.06495 | 92.58212 | 4443 ft | 165 kts | 175° |
| 2026-04-27 07:37 | 24.05351 | 92.58419 | 4445 ft | 165 kts | 173° |
| 2026-04-27 07:37 | 24.04217 | 92.58637 | 4450 ft | 164 kts | 173° |
| 2026-04-27 07:38 | 24.03075 | 92.58847 | 4442 ft | 165 kts | 174° |
| 2026-04-27 07:38 | 24.01945 | 92.59044 | 4427 ft | 165 kts | 174° |
| 2026-04-27 07:38 | 24.00802 | 92.59236 | 4445 ft | 164 kts | 174° |
| 2026-04-27 07:38 | 23.99669 | 92.59422 | 4443 ft | 165 kts | 174° |
| 2026-04-27 07:39 | 23.98523 | 92.59609 | 4314 ft | 165 kts | 175° |
| 2026-04-27 07:39 | 23.97386 | 92.59795 | 4087 ft | 164 kts | 175° |
| 2026-04-27 07:39 | 23.96257 | 92.59978 | 3858 ft | 162 kts | 175° |
| 2026-04-27 07:39 | 23.95156 | 92.60159 | 3611 ft | 159 kts | 175° |
| 2026-04-27 07:40 | 23.94094 | 92.60333 | 3385 ft | 150 kts | 175° |
| 2026-04-27 07:40 | 23.93065 | 92.60500 | 3163 ft | 150 kts | 174° |
| 2026-04-27 07:40 | 23.92031 | 92.60670 | 2931 ft | 149 kts | 174° |
| 2026-04-27 07:40 | 23.91003 | 92.60838 | 2712 ft | 149 kts | 174° |
| 2026-04-27 07:41 | 23.89975 | 92.60975 | 2471 ft | 148 kts | 175° |
| 2026-04-27 07:41 | 23.88957 | 92.61124 | 2266 ft | 147 kts | 174° |
| 2026-04-27 07:41 | 23.87940 | 92.61288 | 2022 ft | 146 kts | 172° |
| 2026-04-27 07:41 | 23.86940 | 92.61459 | 1806 ft | 146 kts | 171° |
| 2026-04-27 07:42 | 23.85938 | 92.61630 | 1587 ft | 145 kts | 171° |
| 2026-04-27 07:42 | 23.84940 | 92.61805 | 1408 ft | 140 kts | 171° |
| 2026-04-27 07:42 | 23.84099 | 92.61948 | 1443 ft | 98 kts | 171° |
| 2026-04-27 07:42 | 23.83592 | 92.62035 | 1440 ft | 48 kts | 170° |
| 2026-04-27 07:43 | 23.83327 | 92.62082 | 1439 ft | 35 kts | 171° |
| 2026-04-27 07:43 | 23.83118 | 92.62117 | 1438 ft | 18 kts | 171° |
| 2026-04-27 07:43 | 23.83038 | 92.62168 | 1436 ft | 10 kts | 123° |
| 2026-04-27 07:43 | 23.82981 | 92.62190 | 1435 ft | 9 kts | 226° |
| 2026-04-27 07:44 | 23.83013 | 92.62136 | 1436 ft | 9 kts | 345° |
| 2026-04-27 07:44 | 23.83081 | 92.62125 | 1437 ft | 10 kts | 351° |
| 2026-04-27 07:44 | 23.83154 | 92.62112 | 1439 ft | 10 kts | 351° |
| 2026-04-27 07:44 | 23.83234 | 92.62098 | 1439 ft | 12 kts | 351° |
| 2026-04-27 07:45 | 23.83327 | 92.62082 | 1439 ft | 14 kts | 351° |
| 2026-04-27 07:45 | 23.83430 | 92.62064 | 1439 ft | 15 kts | 351° |
| 2026-04-27 07:45 | 23.83542 | 92.62045 | 1440 ft | 16 kts | 351° |
| 2026-04-27 07:45 | 23.83654 | 92.62026 | 1442 ft | 16 kts | 351° |
| 2026-04-27 07:46 | 23.83767 | 92.62006 | 1442 ft | 13 kts | 351° |
| 2026-04-27 07:46 | 23.83836 | 92.62053 | 1441 ft | 14 kts | 75° |
| 2026-04-27 07:46 | 23.83853 | 92.62166 | 1439 ft | 16 kts | 81° |
| 2026-04-27 07:46 | 23.83860 | 92.62212 | 1440 ft | 4 kts | 81° |
| 2026-04-27 07:47 | 23.83864 | 92.62242 | 1441 ft | 3 kts | 66° |
| 2026-04-27 07:47 | 23.83888 | 92.62254 | 1441 ft | 4 kts | 7° |
| 2026-04-27 07:47 | 23.83910 | 92.62273 | 1441 ft | 4 kts | 68° |
| 2026-04-27 07:47 | 23.83905 | 92.62303 | 1442 ft | 3 kts | 138° |
| 2026-04-27 07:48 | 23.83895 | 92.62307 | 1442 ft | 0 kts | 169° |